Time;durP1;ratioP1;P1;durP2;ratioP2;P2;SDS_P1;SDS_P2;PMS_P1;PMS_P2;Temp;Humidity;BMP_temperature;BMP_pressure;BME280_temperature;BME280_humidity;BME280_pressure;Samples;Min_cycle;Max_cycle;Signal;HPM_P1;HPM_P2
2023/05/08 00:01:09;;;;;;;4.50;2.83;;;;;;;;;;6323759;28;20030;-75
2023/05/08 00:04:09;;;;;;;9.97;3.33;;;;;;;;;;6327626;28;20375;-75
2023/05/08 00:07:09;;;;;;;5.60;3.40;;;;;;;;;;6331143;28;20030;-75
2023/05/08 00:10:10;;;;;;;5.32;3.28;;;;;;;;;;6319871;28;20050;-75
2023/05/08 00:13:10;;;;;;;6.77;3.23;;;;;;;;;;6328061;28;20027;-75
2023/05/08 00:16:11;;;;;;;7.35;3.53;;;;;;;;;;6328204;28;20058;-75
2023/05/08 00:19:12;;;;;;;3.38;2.50;;;;;;;;;;6326090;28;20512;-75
2023/05/08 00:22:12;;;;;;;3.77;2.20;;;;;;;;;;6338503;28;20015;-75
2023/05/08 00:25:12;;;;;;;3.30;1.83;;;;;;;;;;6327552;28;20082;-75
2023/05/08 00:28:12;;;;;;;5.93;2.47;;;;;;;;;;6329559;28;20556;-74
2023/05/08 00:31:13;;;;;;;2.53;2.00;;;;;;;;;;6326840;28;20027;-75
2023/05/08 00:34:14;;;;;;;3.85;2.38;;;;;;;;;;6335065;28;20015;-75
2023/05/08 00:37:14;;;;;;;2.37;1.90;;;;;;;;;;6333709;28;20012;-74
2023/05/08 00:40:15;;;;;;;4.30;2.20;;;;;;;;;;6328145;28;20071;-75
2023/05/08 00:43:15;;;;;;;4.60;2.33;;;;;;;;;;6326533;28;20390;-75
2023/05/08 00:46:16;;;;;;;5.67;3.40;;;;;;;;;;6328154;28;20040;-75
2023/05/08 00:49:16;;;;;;;6.10;3.20;;;;;;;;;;6323329;28;20410;-75
2023/05/08 00:52:17;;;;;;;6.03;2.75;;;;;;;;;;6336803;28;20127;-75
2023/05/08 00:55:18;;;;;;;5.00;2.93;;;;;;;;;;6326344;28;20019;-75
2023/05/08 00:58:20;;;;;;;5.70;3.13;;;;;;;;;;6326520;28;20020;-75
2023/05/08 01:01:20;;;;;;;;;;;;;;;;;;6316416;28;20033;-80
2023/05/08 01:04:23;;;;;;;6.85;2.95;;;;;;;;;;6338158;28;20274;-79
2023/05/08 01:07:23;;;;;;;5.15;2.78;;;;;;;;;;6330438;28;20085;-79
2023/05/08 01:10:28;;;;;;;5.80;3.00;;;;;;;;;;6333124;28;20070;-79
2023/05/08 01:13:38;;;;;;;6.28;3.33;;;;;;;;;;6333321;28;20024;-79
2023/05/08 01:16:48;;;;;;;5.75;3.42;;;;;;;;;;6329576;28;20051;-80
2023/05/08 01:19:56;;;;;;;6.22;3.42;;;;;;;;;;6299908;28;20740;-80
2023/05/08 01:23:15;;;;;;;5.45;3.45;;;;;;;;;;6324946;28;20130;-80
2023/05/08 01:26:24;;;;;;;8.40;4.00;;;;;;;;;;6331980;28;20104;-79
2023/05/08 01:29:32;;;;;;;7.22;3.92;;;;;;;;;;6322709;28;20114;-79
2023/05/08 01:32:39;;;;;;;5.18;3.97;;;;;;;;;;6319000;28;20465;-79
2023/05/08 01:35:52;;;;;;;6.57;4.35;;;;;;;;;;6325091;28;20028;-78
2023/05/08 01:38:52;;;;;;;;;;;;;;;;;;6313011;28;20042;-79
2023/05/08 01:42:15;;;;;;;8.70;4.85;;;;;;;;;;6336737;28;19911;-79
2023/05/08 01:45:19;;;;;;;6.78;4.13;;;;;;;;;;6328291;28;20028;-79
2023/05/08 01:48:23;;;;;;;8.10;5.03;;;;;;;;;;6336306;28;20136;-79
2023/05/08 01:51:26;;;;;;;9.35;4.30;;;;;;;;;;6336734;28;20039;-79
2023/05/08 01:54:27;;;;;;;6.32;4.07;;;;;;;;;;6322837;28;20054;-79
2023/05/08 01:57:28;;;;;;;8.50;4.70;;;;;;;;;;6331102;28;20658;-79
2023/05/08 02:00:30;;;;;;;5.47;3.38;;;;;;;;;;6333632;28;20055;-79
2023/05/08 02:03:32;;;;;;;5.18;3.30;;;;;;;;;;6317013;28;20024;-79
2023/05/08 02:06:33;;;;;;;7.70;3.70;;;;;;;;;;6325830;28;20508;-79
2023/05/08 02:09:34;;;;;;;9.20;3.50;;;;;;;;;;6338235;27;20102;-75
2023/05/08 02:12:35;;;;;;;9.20;3.75;;;;;;;;;;6331092;28;20039;-79
2023/05/08 02:15:36;;;;;;;5.70;3.35;;;;;;;;;;6327297;28;20023;-79
2023/05/08 02:18:38;;;;;;;6.82;3.20;;;;;;;;;;6334934;28;20016;-79
2023/05/08 02:21:39;;;;;;;5.55;3.20;;;;;;;;;;6335959;28;20059;-79
2023/05/08 02:24:40;;;;;;;7.30;3.10;;;;;;;;;;6338328;28;20034;-80
2023/05/08 02:27:44;;;;;;;5.47;3.40;;;;;;;;;;6326676;28;20020;-79
2023/05/08 02:30:45;;;;;;;6.20;3.92;;;;;;;;;;6331546;28;20109;-79
2023/05/08 02:33:46;;;;;;;6.23;3.37;;;;;;;;;;6305375;28;20035;-79
2023/05/08 02:36:48;;;;;;;6.45;3.50;;;;;;;;;;6328373;28;20035;-79
2023/05/08 02:39:50;;;;;;;5.47;3.25;;;;;;;;;;6329029;28;20108;-80
2023/05/08 02:42:50;;;;;;;5.35;3.30;;;;;;;;;;6337494;28;20103;-78
2023/05/08 02:46:09;;;;;;;7.73;3.70;;;;;;;;;;6318473;28;20474;-78
2023/05/08 02:49:22;;;;;;;6.78;3.70;;;;;;;;;;6335247;28;20478;-79
2023/05/08 02:52:31;;;;;;;5.47;3.58;;;;;;;;;;6331013;28;20055;-79
2023/05/08 02:55:51;;;;;;;4.78;3.30;;;;;;;;;;6329654;28;20428;-79
2023/05/08 02:58:56;;;;;;;6.50;4.40;;;;;;;;;;6325557;28;20016;-79
2023/05/08 03:02:05;;;;;;;7.35;4.22;;;;;;;;;;6344656;28;20024;-80
2023/05/08 03:05:10;;;;;;;7.22;3.75;;;;;;;;;;6320112;28;20034;-80
2023/05/08 03:08:14;;;;;;;8.57;3.55;;;;;;;;;;6321258;27;20603;-78
2023/05/08 03:11:18;;;;;;;5.00;3.45;;;;;;;;;;6327621;28;20101;-80
2023/05/08 03:14:21;;;;;;;7.68;4.10;;;;;;;;;;6339752;28;20354;-79
2023/05/08 03:17:23;;;;;;;6.47;4.30;;;;;;;;;;6329186;28;20020;-80
2023/05/08 03:20:24;;;;;;;6.82;4.28;;;;;;;;;;6327752;28;20089;-75
2023/05/08 03:23:27;;;;;;;7.43;5.28;;;;;;;;;;6344582;28;20023;-74
2023/05/08 03:26:27;;;;;;;6.88;3.97;;;;;;;;;;6317701;28;20020;-75
2023/05/08 03:29:28;;;;;;;8.93;4.53;;;;;;;;;;6333887;28;20432;-75
2023/05/08 03:32:28;;;;;;;8.03;4.53;;;;;;;;;;6333418;28;20072;-75
2023/05/08 03:35:29;;;;;;;6.13;4.47;;;;;;;;;;6323805;28;20478;-75
2023/05/08 03:38:29;;;;;;;6.77;4.07;;;;;;;;;;6322101;27;20031;-75
2023/05/08 03:41:30;;;;;;;7.17;3.93;;;;;;;;;;6324990;28;20111;-75
2023/05/08 03:44:30;;;;;;;7.30;4.20;;;;;;;;;;6324287;28;20111;-75
2023/05/08 03:47:31;;;;;;;6.10;3.03;;;;;;;;;;6322358;28;20029;-75
2023/05/08 03:50:34;;;;;;;4.95;2.97;;;;;;;;;;6301789;28;20082;-75
2023/05/08 03:53:34;;;;;;;6.78;4.35;;;;;;;;;;6307823;28;20020;-75
2023/05/08 03:56:34;;;;;;;7.57;3.47;;;;;;;;;;6312630;28;20031;-75
2023/05/08 03:59:47;;;;;;;5.40;3.40;;;;;;;;;;6304405;28;20553;-75
2023/05/08 04:02:47;;;;;;;5.93;3.55;;;;;;;;;;6303545;28;20028;-75
2023/05/08 04:05:58;;;;;;;6.35;3.75;;;;;;;;;;6297861;28;20056;-75
2023/05/08 04:09:06;;;;;;;6.30;3.67;;;;;;;;;;6306348;28;20032;-75
2023/05/08 04:12:18;;;;;;;5.75;3.30;;;;;;;;;;6314359;28;20048;-75
2023/05/08 04:15:24;;;;;;;5.70;3.88;;;;;;;;;;6308072;28;20516;-75
2023/05/08 04:18:27;;;;;;;5.60;3.30;;;;;;;;;;6279771;28;20020;-75
2023/05/08 04:21:28;;;;;;;6.97;3.97;;;;;;;;;;6304282;28;20030;-75
2023/05/08 04:24:29;;;;;;;7.03;3.33;;;;;;;;;;6310895;28;20496;-75
2023/05/08 04:27:30;;;;;;;6.70;3.63;;;;;;;;;;6316655;28;20016;-75
2023/05/08 04:30:30;;;;;;;5.70;3.60;;;;;;;;;;6317740;28;20035;-80
2023/05/08 04:33:32;;;;;;;7.25;4.82;;;;;;;;;;6304891;28;20091;-79
2023/05/08 04:36:32;;;;;;;13.07;4.57;;;;;;;;;;6310493;28;20020;-80
2023/05/08 04:39:33;;;;;;;7.27;4.03;;;;;;;;;;6290081;28;20009;-80
2023/05/08 04:42:35;;;;;;;9.07;3.90;;;;;;;;;;6294387;28;20147;-79
2023/05/08 04:45:35;;;;;;;6.13;3.38;;;;;;;;;;6307445;28;20008;-80
2023/05/08 04:48:35;;;;;;;8.53;4.17;;;;;;;;;;6322806;28;20405;-79
2023/05/08 04:51:36;;;;;;;7.13;3.77;;;;;;;;;;6328335;28;20071;-79
2023/05/08 04:54:36;;;;;;;6.17;3.53;;;;;;;;;;6320624;28;20552;-80
2023/05/08 04:57:37;;;;;;;6.93;3.53;;;;;;;;;;6331317;28;20053;-79
2023/05/08 05:00:37;;;;;;;5.90;3.70;;;;;;;;;;6330087;28;20016;-80
2023/05/08 05:03:37;;;;;;;6.27;3.83;;;;;;;;;;6332335;28;20087;-80
2023/05/08 05:06:38;;;;;;;10.25;4.55;;;;;;;;;;6327589;28;20022;-80
2023/05/08 05:09:38;;;;;;;6.28;3.33;;;;;;;;;;6339598;28;20024;-80
2023/05/08 05:12:38;;;;;;;8.93;5.70;;;;;;;;;;6342962;28;20051;-80
2023/05/08 05:15:40;;;;;;;6.07;4.07;;;;;;;;;;6329492;28;20032;-79
2023/05/08 05:18:41;;;;;;;7.95;4.90;;;;;;;;;;6331536;28;20573;-79
2023/05/08 05:21:41;;;;;;;6.43;3.97;;;;;;;;;;6339820;28;20114;-79
2023/05/08 05:24:42;;;;;;;8.20;3.13;;;;;;;;;;6336509;28;20034;-80
2023/05/08 05:27:42;;;;;;;7.40;4.03;;;;;;;;;;6321817;28;20024;-79
2023/05/08 05:30:45;;;;;;;6.10;3.53;;;;;;;;;;6341162;27;20036;-78
2023/05/08 05:33:45;;;;;;;7.70;4.32;;;;;;;;;;6342437;28;20043;-80
2023/05/08 05:36:46;;;;;;;5.07;3.43;;;;;;;;;;6326690;28;20020;-80
2023/05/08 05:39:46;;;;;;;7.40;3.83;;;;;;;;;;6344942;28;20046;-74
2023/05/08 05:42:47;;;;;;;6.97;4.05;;;;;;;;;;6346862;27;20051;-75
2023/05/08 05:45:49;;;;;;;7.45;4.32;;;;;;;;;;6339240;28;20467;-75
2023/05/08 05:48:49;;;;;;;6.75;3.97;;;;;;;;;;6341078;28;20048;-74
2023/05/08 05:51:49;;;;;;;7.70;4.97;;;;;;;;;;6340505;28;20032;-75
2023/05/08 05:54:49;;;;;;;6.53;4.33;;;;;;;;;;6330935;28;20051;-74
2023/05/08 05:57:50;;;;;;;8.80;4.57;;;;;;;;;;6340447;28;20023;-74
2023/05/08 06:00:50;;;;;;;11.50;4.80;;;;;;;;;;6326897;28;20023;-74
2023/05/08 06:03:50;;;;;;;8.45;4.75;;;;;;;;;;6335536;28;20028;-74
2023/05/08 06:06:50;;;;;;;8.48;5.15;;;;;;;;;;6343283;27;20108;-75
2023/05/08 06:09:52;;;;;;;6.97;4.37;;;;;;;;;;6339274;27;20488;-75
2023/05/08 06:12:52;;;;;;;9.00;5.10;;;;;;;;;;6325393;28;20020;-75
2023/05/08 06:15:55;;;;;;;10.77;6.40;;;;;;;;;;6333708;28;20099;-76
2023/05/08 06:18:55;;;;;;;8.93;4.68;;;;;;;;;;6335193;28;20017;-75
2023/05/08 06:21:55;;;;;;;10.40;5.63;;;;;;;;;;6334224;28;20520;-75
2023/05/08 06:24:56;;;;;;;8.32;4.68;;;;;;;;;;6338626;28;20568;-75
2023/05/08 06:27:56;;;;;;;9.37;4.67;;;;;;;;;;6332904;27;20130;-75
2023/05/08 06:30:56;;;;;;;8.97;5.00;;;;;;;;;;6343142;28;20386;-75
2023/05/08 06:33:56;;;;;;;6.80;3.50;;;;;;;;;;6340021;27;20023;-76
2023/05/08 06:36:57;;;;;;;6.03;3.63;;;;;;;;;;6335463;27;20027;-76
2023/05/08 06:39:57;;;;;;;5.77;3.70;;;;;;;;;;6342678;28;20026;-76
2023/05/08 06:42:59;;;;;;;8.67;4.17;;;;;;;;;;6329063;28;20099;-76
2023/05/08 06:45:59;;;;;;;5.70;3.42;;;;;;;;;;6332349;28;20024;-76
2023/05/08 06:48:59;;;;;;;5.30;2.97;;;;;;;;;;6333415;28;20075;-75
2023/05/08 06:52:00;;;;;;;7.23;3.60;;;;;;;;;;6339594;28;20028;-81
2023/05/08 06:55:00;;;;;;;6.07;3.97;;;;;;;;;;6338211;28;20015;-80
2023/05/08 06:58:00;;;;;;;5.70;4.17;;;;;;;;;;6337536;28;20019;-81
2023/05/08 07:01:00;;;;;;;8.07;4.40;;;;;;;;;;6342661;28;20107;-81
2023/05/08 07:04:00;;;;;;;5.80;3.80;;;;;;;;;;6318204;28;20038;-81
2023/05/08 07:07:01;;;;;;;10.77;4.57;;;;;;;;;;6340838;28;20337;-81
2023/05/08 07:10:01;;;;;;;7.37;3.80;;;;;;;;;;6336174;28;20024;-80
2023/05/08 07:13:02;;;;;;;5.40;3.57;;;;;;;;;;6329366;28;20389;-81
2023/05/08 07:16:04;;;;;;;7.57;4.40;;;;;;;;;;6336030;27;20028;-81
2023/05/08 07:19:04;;;;;;;6.15;4.30;;;;;;;;;;6332605;28;20099;-80
2023/05/08 07:22:04;;;;;;;4.97;3.40;;;;;;;;;;6337013;28;20044;-81
2023/05/08 07:25:05;;;;;;;5.03;3.10;;;;;;;;;;6337527;28;20465;-81
2023/05/08 07:28:07;;;;;;;7.83;3.20;;;;;;;;;;6336268;28;20534;-81
2023/05/08 07:31:07;;;;;;;7.60;3.60;;;;;;;;;;6333931;28;20576;-80
2023/05/08 07:34:09;;;;;;;4.97;3.83;;;;;;;;;;6336346;27;20046;-79
2023/05/08 07:37:10;;;;;;;5.53;3.40;;;;;;;;;;6342418;27;20027;-81
2023/05/08 07:40:10;;;;;;;6.80;3.93;;;;;;;;;;6338273;28;20023;-81
2023/05/08 07:43:12;;;;;;;5.67;3.93;;;;;;;;;;6341572;28;20367;-81
2023/05/08 07:46:15;;;;;;;10.13;3.85;;;;;;;;;;6335337;28;20067;-81
2023/05/08 07:49:16;;;;;;;7.95;3.67;;;;;;;;;;6328765;28;20494;-81
2023/05/08 07:52:16;;;;;;;7.47;4.03;;;;;;;;;;6314158;28;20106;-81
2023/05/08 07:55:17;;;;;;;10.50;3.30;;;;;;;;;;6303120;28;20039;-81
2023/05/08 07:58:17;;;;;;;4.57;2.83;;;;;;;;;;6296346;28;20561;-81
2023/05/08 08:01:17;;;;;;;7.07;3.38;;;;;;;;;;6301424;28;20020;-76
2023/05/08 08:04:17;;;;;;;4.97;2.97;;;;;;;;;;6294683;28;20069;-76
2023/05/08 08:07:18;;;;;;;6.50;3.13;;;;;;;;;;6311521;28;20040;-76
2023/05/08 08:10:18;;;;;;;6.13;3.45;;;;;;;;;;6314448;28;20145;-75
2023/05/08 08:13:18;;;;;;;7.20;3.40;;;;;;;;;;6304782;28;20023;-76
2023/05/08 08:16:18;;;;;;;4.60;2.97;;;;;;;;;;6302727;28;20389;-76
2023/05/08 08:19:19;;;;;;;6.55;3.67;;;;;;;;;;6315833;28;20023;-76
2023/05/08 08:22:19;;;;;;;5.57;3.30;;;;;;;;;;6301451;28;20107;-76
2023/05/08 08:25:19;;;;;;;5.73;3.30;;;;;;;;;;6309653;28;20055;-76
2023/05/08 08:28:20;;;;;;;8.17;3.77;;;;;;;;;;6303024;28;20012;-76
2023/05/08 08:31:20;;;;;;;4.47;3.03;;;;;;;;;;6286213;28;20069;-76
2023/05/08 08:34:20;;;;;;;5.13;3.03;;;;;;;;;;6298901;28;20031;-76
2023/05/08 08:37:20;;;;;;;8.87;4.10;;;;;;;;;;6311265;28;20005;-76
2023/05/08 08:40:22;;;;;;;8.20;4.30;;;;;;;;;;6296156;28;20174;-76
2023/05/08 08:43:22;;;;;;;7.65;3.78;;;;;;;;;;6295174;28;20020;-76
2023/05/08 08:46:26;;;;;;;7.60;3.47;;;;;;;;;;6276395;28;20551;-76
2023/05/08 08:49:29;;;;;;;8.52;4.25;;;;;;;;;;6303925;28;20495;-76
2023/05/08 08:52:30;;;;;;;6.38;4.03;;;;;;;;;;6304555;28;20123;-76
2023/05/08 08:55:31;;;;;;;7.35;3.67;;;;;;;;;;6303174;28;20517;-76
2023/05/08 08:58:45;;;;;;;5.53;3.30;;;;;;;;;;6305674;28;20028;-76
2023/05/08 09:01:50;;;;;;;5.20;2.97;;;;;;;;;;6294442;28;20070;-75
2023/05/08 09:04:50;;;;;;;4.30;3.08;;;;;;;;;;6280924;28;20040;-76
2023/05/08 09:07:53;;;;;;;4.53;3.03;;;;;;;;;;6313726;28;20056;-75
2023/05/08 09:10:54;;;;;;;5.93;2.40;;;;;;;;;;6316049;28;20032;-81
2023/05/08 09:13:55;;;;;;;4.82;3.20;;;;;;;;;;6317481;28;20377;-81
2023/05/08 09:16:55;;;;;;;4.53;3.03;;;;;;;;;;6295949;28;20021;-81
2023/05/08 09:19:55;;;;;;;7.50;2.70;;;;;;;;;;6299493;28;20082;-82
2023/05/08 09:22:56;;;;;;;5.50;3.33;;;;;;;;;;6297846;28;20098;-81
2023/05/08 09:25:56;;;;;;;4.70;2.80;;;;;;;;;;6306377;28;20036;-81
2023/05/08 09:29:14;;;;;;;6.77;2.80;;;;;;;;;;6299748;28;20378;-81
2023/05/08 09:32:17;;;;;;;6.88;3.08;;;;;;;;;;6313375;28;20012;-81
2023/05/08 09:35:17;;;;;;;4.45;3.45;;;;;;;;;;6305407;28;20044;-81
2023/05/08 09:38:34;;;;;;;5.93;3.30;;;;;;;;;;6289941;28;20051;-81
2023/05/08 09:41:34;;;;;;;6.35;3.28;;;;;;;;;;6312101;28;20434;-81
2023/05/08 09:44:48;;;;;;;6.53;3.47;;;;;;;;;;6314191;28;20024;-80
2023/05/08 09:47:48;;;;;;;6.85;3.33;;;;;;;;;;6304409;28;20372;-81
2023/05/08 09:51:03;;;;;;;4.83;3.40;;;;;;;;;;6309054;28;20063;-80
2023/05/08 09:54:15;;;;;;;5.72;3.55;;;;;;;;;;6307917;28;20055;-80
2023/05/08 09:57:16;;;;;;;5.93;3.00;;;;;;;;;;6309016;28;20020;-81
2023/05/08 10:00:16;;;;;;;6.77;3.43;;;;;;;;;;6308973;28;20055;-80
2023/05/08 10:03:16;;;;;;;4.70;3.33;;;;;;;;;;6302397;28;20107;-81
2023/05/08 10:06:17;;;;;;;4.90;2.88;;;;;;;;;;6314673;28;20020;-81
2023/05/08 10:09:17;;;;;;;4.17;2.77;;;;;;;;;;6305536;28;20474;-81
2023/05/08 10:12:18;;;;;;;10.10;3.73;;;;;;;;;;6300664;28;20036;-81
2023/05/08 10:15:21;;;;;;;6.28;3.15;;;;;;;;;;6300069;28;20028;-81
2023/05/08 10:18:23;;;;;;;5.80;3.20;;;;;;;;;;6285509;28;20116;-80
2023/05/08 10:21:24;;;;;;;7.35;3.47;;;;;;;;;;6314908;28;20020;-76
2023/05/08 10:24:25;;;;;;;7.53;4.20;;;;;;;;;;6313323;28;20429;-76
2023/05/08 10:27:30;;;;;;;5.50;3.30;;;;;;;;;;6304251;28;20051;-76
2023/05/08 10:30:32;;;;;;;8.80;4.20;;;;;;;;;;6307974;28;20024;-76
2023/05/08 10:33:33;;;;;;;6.68;4.43;;;;;;;;;;6302021;28;20028;-76
2023/05/08 10:36:34;;;;;;;9.75;4.10;;;;;;;;;;6318056;28;20024;-76
2023/05/08 10:39:34;;;;;;;5.53;3.07;;;;;;;;;;6284945;28;20519;-76
2023/05/08 10:42:35;;;;;;;5.70;3.10;;;;;;;;;;6307176;28;20031;-76
2023/05/08 10:45:36;;;;;;;5.97;3.30;;;;;;;;;;6303906;28;20024;-76
2023/05/08 10:48:45;;;;;;;4.83;3.00;;;;;;;;;;6306872;28;20036;-76
2023/05/08 10:51:54;;;;;;;6.40;4.15;;;;;;;;;;6313917;28;20033;-76
2023/05/08 10:55:01;;;;;;;8.80;4.40;;;;;;;;;;6305760;28;20060;-76
2023/05/08 10:58:11;;;;;;;7.30;3.42;;;;;;;;;;6307294;28;20027;-76
2023/05/08 11:01:12;;;;;;;4.95;4.05;;;;;;;;;;6307778;28;20031;-76
2023/05/08 11:04:20;;;;;;;7.67;3.07;;;;;;;;;;6300110;28;20470;-76
2023/05/08 11:07:28;;;;;;;4.03;2.75;;;;;;;;;;6279755;28;20024;-73
2023/05/08 11:10:35;;;;;;;4.32;2.60;;;;;;;;;;6309964;28;20031;-73
2023/05/08 11:13:36;;;;;;;7.13;3.35;;;;;;;;;;6302558;28;20032;-73
2023/05/08 11:16:52;;;;;;;4.45;2.30;;;;;;;;;;6301938;28;20008;-76
2023/05/08 11:20:01;;;;;;;8.57;3.72;;;;;;;;;;6293117;28;20028;-76
2023/05/08 11:23:19;;;;;;;3.88;2.55;;;;;;;;;;6302704;28;20078;-73
2023/05/08 11:26:20;;;;;;;4.85;2.92;;;;;;;;;;6313995;28;20024;-73
2023/05/08 11:29:21;;;;;;;5.43;2.50;;;;;;;;;;6306104;28;20075;-77
2023/05/08 11:32:24;;;;;;;5.80;2.73;;;;;;;;;;6311480;28;20501;-77
2023/05/08 11:35:45;;;;;;;5.38;3.05;;;;;;;;;;6300820;28;20033;-77
2023/05/08 11:39:03;;;;;;;5.57;3.08;;;;;;;;;;6314338;28;20028;-77
2023/05/08 11:42:22;;;;;;;5.70;2.88;;;;;;;;;;6295929;28;20406;-80
2023/05/08 11:45:23;;;;;;;5.80;3.15;;;;;;;;;;6296439;28;20067;-80
2023/05/08 11:48:24;;;;;;;6.70;3.37;;;;;;;;;;6310777;28;20489;-77
2023/05/08 11:51:29;;;;;;;7.60;3.35;;;;;;;;;;6296523;28;20082;-77
2023/05/08 11:54:30;;;;;;;5.65;2.10;;;;;;;;;;6299541;28;20106;-77
2023/05/08 11:57:33;;;;;;;5.73;2.73;;;;;;;;;;6308067;28;20016;-80
2023/05/08 12:00:34;;;;;;;3.78;2.35;;;;;;;;;;6286681;28;20433;-80
2023/05/08 12:03:34;;;;;;;7.75;2.55;;;;;;;;;;6311391;28;20027;-77
2023/05/08 12:06:36;;;;;;;5.10;2.37;;;;;;;;;;6295857;28;20035;-77
2023/05/08 12:09:37;;;;;;;5.72;2.42;;;;;;;;;;6305133;28;20028;-77
2023/05/08 12:12:40;;;;;;;6.43;2.83;;;;;;;;;;6301608;28;20048;-77
2023/05/08 12:15:40;;;;;;;3.95;2.30;;;;;;;;;;6301031;28;20095;-77
2023/05/08 12:18:42;;;;;;;3.63;2.60;;;;;;;;;;6300578;28;20016;-77
2023/05/08 12:21:47;;;;;;;5.60;2.30;;;;;;;;;;6311615;28;20028;-76
2023/05/08 12:24:47;;;;;;;4.72;2.63;;;;;;;;;;6306751;28;20482;-77
2023/05/08 12:27:47;;;;;;;4.27;2.37;;;;;;;;;;6303549;28;20074;-77
2023/05/08 12:30:48;;;;;;;4.87;2.40;;;;;;;;;;6308452;28;20027;-77
2023/05/08 12:33:48;;;;;;;7.60;2.50;;;;;;;;;;6280777;28;20364;-77
2023/05/08 12:36:59;;;;;;;3.40;2.00;;;;;;;;;;6307303;28;20031;-77
2023/05/08 12:40:00;;;;;;;3.53;1.87;;;;;;;;;;6306491;28;20673;-74
2023/05/08 12:43:01;;;;;;;4.73;2.13;;;;;;;;;;6311761;28;20028;-73
2023/05/08 12:46:02;;;;;;;2.75;1.85;;;;;;;;;;6281928;28;20028;-73
2023/05/08 12:49:06;;;;;;;2.78;2.10;;;;;;;;;;6305066;28;20051;-73
2023/05/08 12:52:07;;;;;;;4.63;1.67;;;;;;;;;;6295688;28;20042;-73
2023/05/08 12:55:23;;;;;;;6.68;2.10;;;;;;;;;;6303259;28;20098;-73
2023/05/08 12:58:24;;;;;;;3.60;1.67;;;;;;;;;;6304721;28;20025;-73
2023/05/08 13:01:25;;;;;;;;;;;;;;;;;;6303033;28;20539;-73
2023/05/08 13:04:25;;;;;;;6.30;1.92;;;;;;;;;;6308180;28;20433;-73
2023/05/08 13:07:30;;;;;;;2.87;1.93;;;;;;;;;;6302000;28;20032;-73
2023/05/08 13:10:46;;;;;;;2.28;1.85;;;;;;;;;;6303315;28;20492;-73
2023/05/08 13:13:47;;;;;;;4.07;1.88;;;;;;;;;;6309788;28;20020;-73
2023/05/08 13:16:47;;;;;;;4.50;1.98;;;;;;;;;;6297449;28;20023;-73
2023/05/08 13:19:47;;;;;;;4.57;1.92;;;;;;;;;;6299055;28;20051;-73
2023/05/08 13:22:47;;;;;;;7.17;1.90;;;;;;;;;;6289396;28;20063;-73
2023/05/08 13:25:47;;;;;;;5.55;2.38;;;;;;;;;;6301050;28;20031;-73
2023/05/08 13:28:48;;;;;;;6.87;2.97;;;;;;;;;;6302043;28;20056;-73
2023/05/08 13:31:48;;;;;;;3.17;2.22;;;;;;;;;;6301006;28;20056;-73
2023/05/08 13:34:48;;;;;;;3.90;2.20;;;;;;;;;;6301480;28;20069;-73
2023/05/08 13:37:48;;;;;;;5.80;2.30;;;;;;;;;;6303387;28;20024;-73
2023/05/08 13:40:48;;;;;;;5.97;2.27;;;;;;;;;;6303882;28;20117;-73
2023/05/08 13:43:49;;;;;;;6.63;2.20;;;;;;;;;;6309112;28;20023;-74
2023/05/08 13:46:49;;;;;;;5.93;2.37;;;;;;;;;;6299476;28;20085;-74
2023/05/08 13:49:49;;;;;;;5.10;2.47;;;;;;;;;;6302751;28;20135;-74
2023/05/08 13:52:53;;;;;;;3.35;2.00;;;;;;;;;;6305057;28;20039;-74
2023/05/08 13:55:53;;;;;;;4.53;2.20;;;;;;;;;;6303179;28;20020;-74
2023/05/08 13:58:53;;;;;;;4.15;2.35;;;;;;;;;;6312207;28;20376;-74
2023/05/08 14:01:53;;;;;;;3.23;1.87;;;;;;;;;;6294666;28;20132;-74
2023/05/08 14:04:53;;;;;;;2.60;1.53;;;;;;;;;;6310447;28;20128;-74
2023/05/08 14:07:54;;;;;;;3.87;1.80;;;;;;;;;;6311065;28;20039;-74
2023/05/08 14:10:54;;;;;;;4.83;2.00;;;;;;;;;;6314428;28;20047;-74
2023/05/08 14:13:55;;;;;;;3.13;1.90;;;;;;;;;;6292333;28;20028;-74
2023/05/08 14:16:55;;;;;;;3.00;2.23;;;;;;;;;;6305803;28;20107;-74
2023/05/08 14:19:55;;;;;;;2.90;1.90;;;;;;;;;;6296965;28;20028;-74
2023/05/08 14:22:55;;;;;;;4.23;2.10;;;;;;;;;;6310106;28;20035;-74
2023/05/08 14:25:55;;;;;;;4.22;2.30;;;;;;;;;;6309749;28;20028;-74
2023/05/08 14:28:56;;;;;;;3.13;1.90;;;;;;;;;;6310129;28;20434;-74
2023/05/08 14:31:56;;;;;;;4.97;2.00;;;;;;;;;;6291953;28;20033;-74
2023/05/08 14:34:56;;;;;;;4.20;2.63;;;;;;;;;;6311123;28;20143;-74
2023/05/08 14:37:56;;;;;;;5.47;2.30;;;;;;;;;;6310226;28;20382;-74
2023/05/08 14:40:56;;;;;;;3.80;2.30;;;;;;;;;;6306778;28;20027;-75
2023/05/08 14:43:57;;;;;;;7.23;2.43;;;;;;;;;;6309491;28;20052;-75
2023/05/08 14:46:57;;;;;;;4.37;2.67;;;;;;;;;;6313773;28;20100;-75
2023/05/08 14:49:57;;;;;;;6.40;2.20;;;;;;;;;;6312213;28;20051;-75
2023/05/08 14:52:57;;;;;;;4.27;2.23;;;;;;;;;;6312104;28;20116;-75
2023/05/08 14:55:58;;;;;;;4.73;3.10;;;;;;;;;;6307491;28;20447;-74
2023/05/08 14:58:58;;;;;;;3.30;2.20;;;;;;;;;;6304413;28;20017;-74
2023/05/08 15:01:58;;;;;;;3.43;2.10;;;;;;;;;;6307468;28;20507;-75
2023/05/08 15:04:59;;;;;;;3.17;2.03;;;;;;;;;;6314039;28;20035;-75
2023/05/08 15:08:01;;;;;;;2.63;2.00;;;;;;;;;;6310739;28;20024;-75
2023/05/08 15:11:01;;;;;;;4.07;2.20;;;;;;;;;;6310915;28;20135;-75
2023/05/08 15:14:02;;;;;;;3.67;2.08;;;;;;;;;;6299352;28;20016;-75
2023/05/08 15:17:02;;;;;;;4.03;2.03;;;;;;;;;;6303915;28;20529;-74
2023/05/08 15:20:03;;;;;;;7.67;2.17;;;;;;;;;;6302824;28;20025;-75
2023/05/08 15:23:04;;;;;;;6.57;2.60;;;;;;;;;;6300496;28;20026;-74
2023/05/08 15:26:04;;;;;;;5.30;2.03;;;;;;;;;;6309741;28;20536;-73
2023/05/08 15:29:04;;;;;;;4.50;2.40;;;;;;;;;;6296141;28;20562;-73
2023/05/08 15:32:05;;;;;;;4.15;2.47;;;;;;;;;;6314067;28;20533;-73
2023/05/08 15:35:05;;;;;;;5.83;2.47;;;;;;;;;;6298705;28;20019;-73
2023/05/08 15:38:06;;;;;;;6.17;2.97;;;;;;;;;;6306185;28;20024;-73
2023/05/08 15:41:06;;;;;;;4.03;1.57;;;;;;;;;;6308665;28;20073;-73
2023/05/08 15:44:07;;;;;;;3.90;2.03;;;;;;;;;;6307506;28;20039;-73
2023/05/08 15:47:07;;;;;;;6.03;2.47;;;;;;;;;;6312742;28;20031;-73
2023/05/08 15:50:07;;;;;;;7.03;3.93;;;;;;;;;;6314327;28;20051;-73
2023/05/08 15:53:07;;;;;;;5.17;2.87;;;;;;;;;;6308918;28;20032;-73
2023/05/08 15:56:08;;;;;;;8.07;3.77;;;;;;;;;;6311843;28;20027;-73
2023/05/08 15:59:08;;;;;;;11.57;3.77;;;;;;;;;;6305345;28;20103;-73
2023/05/08 16:02:08;;;;;;;4.73;2.23;;;;;;;;;;6304875;28;20023;-73
2023/05/08 16:05:08;;;;;;;14.60;6.18;;;;;;;;;;6308901;28;20016;-73
2023/05/08 16:08:11;;;;;;;4.47;2.33;;;;;;;;;;6291442;28;20131;-73
2023/05/08 16:11:11;;;;;;;3.70;2.75;;;;;;;;;;6306027;28;20371;-73
2023/05/08 16:14:11;;;;;;;4.40;2.13;;;;;;;;;;6310887;28;20075;-73
2023/05/08 16:17:11;;;;;;;7.43;3.13;;;;;;;;;;6298476;28;20027;-73
2023/05/08 16:20:12;;;;;;;4.20;2.27;;;;;;;;;;6308995;28;20017;-73
2023/05/08 16:23:13;;;;;;;5.70;2.70;;;;;;;;;;6308566;28;20070;-73
2023/05/08 16:26:15;;;;;;;4.60;2.20;;;;;;;;;;6312752;28;20086;-73
2023/05/08 16:29:15;;;;;;;8.20;2.47;;;;;;;;;;6295889;28;20024;-73
2023/05/08 16:32:15;;;;;;;5.77;3.33;;;;;;;;;;6316243;28;20043;-73
2023/05/08 16:35:16;;;;;;;6.07;2.47;;;;;;;;;;6316485;28;20031;-73
2023/05/08 16:38:16;;;;;;;5.77;1.93;;;;;;;;;;6307312;28;20024;-73
2023/05/08 16:41:16;;;;;;;6.97;2.63;;;;;;;;;;6307245;28;20395;-73
2023/05/08 16:44:17;;;;;;;4.07;2.40;;;;;;;;;;6304031;28;20024;-73
2023/05/08 16:47:17;;;;;;;3.00;2.37;;;;;;;;;;6318594;28;20032;-73
2023/05/08 16:50:17;;;;;;;4.78;2.53;;;;;;;;;;6317616;28;20031;-73
2023/05/08 16:53:17;;;;;;;7.60;2.93;;;;;;;;;;6295186;28;20077;-73
2023/05/08 16:56:21;;;;;;;6.00;3.22;;;;;;;;;;6317285;28;20071;-73
2023/05/08 16:59:21;;;;;;;5.85;2.97;;;;;;;;;;6311663;28;20097;-73
2023/05/08 17:02:21;;;;;;;7.88;3.40;;;;;;;;;;6303930;28;20029;-73
2023/05/08 17:05:21;;;;;;;7.20;2.97;;;;;;;;;;6308338;28;20032;-73
2023/05/08 17:08:22;;;;;;;8.87;3.20;;;;;;;;;;6310088;28;20052;-73
2023/05/08 17:11:22;;;;;;;6.32;3.15;;;;;;;;;;6304990;28;20013;-73
2023/05/08 17:14:22;;;;;;;7.27;3.00;;;;;;;;;;6309327;28;20020;-73
2023/05/08 17:17:22;;;;;;;6.00;2.92;;;;;;;;;;6311902;28;20024;-73
2023/05/08 17:20:22;;;;;;;5.57;3.33;;;;;;;;;;6296018;28;20020;-74
2023/05/08 17:23:23;;;;;;;7.30;3.17;;;;;;;;;;6298821;28;20083;-75
2023/05/08 17:26:23;;;;;;;12.70;4.20;;;;;;;;;;6313066;28;20390;-75
2023/05/08 17:29:23;;;;;;;7.87;3.23;;;;;;;;;;6302675;28;20044;-72
2023/05/08 17:32:23;;;;;;;7.43;3.20;;;;;;;;;;6299514;28;20034;-73
2023/05/08 17:35:24;;;;;;;8.10;3.15;;;;;;;;;;6308641;28;20062;-73
2023/05/08 17:38:24;;;;;;;6.87;3.10;;;;;;;;;;6314004;28;20015;-74
2023/05/08 17:41:24;;;;;;;7.57;3.40;;;;;;;;;;6305757;28;20183;-74
2023/05/08 17:44:24;;;;;;;5.00;2.40;;;;;;;;;;6307639;28;20024;-74
2023/05/08 17:47:25;;;;;;;6.17;2.40;;;;;;;;;;6308314;28;20557;-74
2023/05/08 17:50:25;;;;;;;4.63;2.77;;;;;;;;;;6309088;28;20128;-74
2023/05/08 17:53:25;;;;;;;6.87;3.00;;;;;;;;;;6301988;28;20077;-74
2023/05/08 17:56:25;;;;;;;6.60;3.03;;;;;;;;;;6310640;28;20107;-74
2023/05/08 17:59:26;;;;;;;7.13;3.10;;;;;;;;;;6300867;28;20016;-74
2023/05/08 18:02:26;;;;;;;5.60;3.60;;;;;;;;;;6307366;28;20482;-74
2023/05/08 18:05:26;;;;;;;6.83;2.77;;;;;;;;;;6308068;28;20028;-74
2023/05/08 18:08:26;;;;;;;5.93;3.27;;;;;;;;;;6304882;28;20035;-74
2023/05/08 18:11:26;;;;;;;6.10;2.80;;;;;;;;;;6300256;28;20025;-74